Terminal Aerodrome Forecast
Issued by NWS Greer, SC

Home | Current Version | Previous Version | Text Only | Print | Product List | Glossary On
Versions: 1 2 3 4 5 6 7 8 9 10 11 12 13 14 15 16 17 18 19 20 21 22 23 24 25 26 27 28 29 30 31 32
000
FTUS42 KGSP 311139
TAFAVL
TAF
KAVL 311139Z 3112/0112 35003KT 6SM BR SCT004 BKN040
      TEMPO 3112/3115 4SM BR BKN004
     FM311600 00000KT P6SM BKN050
     FM010500 00000KT 5SM BR BKN080
     FM010800 00000KT 2SM BR SCT010 BKN200=

USA.gov is the U.S. government's official web portal to all federal, state and local government web resources and services.